createdAt,value
2017-09-27T00:00:25.871Z,99.99
2017-09-27T00:01:06.451Z,99.99
2017-09-27T00:01:47.026Z,99.99
2017-09-27T00:02:27.619Z,99.99
2017-09-27T00:03:08.201Z,99.99
2017-09-27T00:03:48.786Z,99.99
2017-09-27T00:04:29.367Z,99.99
2017-09-27T00:05:09.953Z,99.99
2017-09-27T00:05:50.526Z,99.99
2017-09-27T00:06:31.098Z,99.99
2017-09-27T00:07:11.680Z,99.99
2017-09-27T00:07:52.265Z,99.99
2017-09-27T00:08:32.856Z,99.99
2017-09-27T00:09:13.436Z,99.99
2017-09-27T00:09:54.021Z,99.99
2017-09-27T00:10:34.606Z,99.99
2017-09-27T00:11:15.213Z,99.99
2017-09-27T00:11:55.770Z,99.99
2017-09-27T00:12:36.345Z,99.99
2017-09-27T00:14:54.315Z,99.99
2017-09-27T00:15:34.906Z,99.99
2017-09-27T00:16:15.470Z,99.99
2017-09-27T00:16:56.048Z,99.99
2017-09-27T00:17:36.625Z,99.99
2017-09-27T00:18:17.203Z,99.99
2017-09-27T00:18:57.780Z,99.99
2017-09-27T00:19:38.361Z,99.99
2017-09-27T00:20:18.949Z,99.99
2017-09-27T00:20:59.533Z,99.99
2017-09-27T00:21:40.110Z,99.99
2017-09-27T00:22:20.692Z,99.99
2017-09-27T00:23:01.284Z,99.99
2017-09-27T00:23:41.848Z,99.99
2017-09-27T00:24:22.438Z,99.99
2017-09-27T00:25:03.017Z,99.99
2017-09-27T00:25:43.595Z,99.99
2017-09-27T00:26:24.163Z,99.99
2017-09-27T00:27:04.743Z,99.99
2017-09-27T00:27:45.317Z,99.99
2017-09-27T00:28:25.895Z,99.99
2017-09-27T00:29:06.474Z,99.99
2017-09-27T00:29:47.054Z,99.99
2017-09-27T00:30:27.638Z,99.99
2017-09-27T00:31:08.218Z,99.99
2017-09-27T00:31:48.785Z,99.99
2017-09-27T00:32:29.366Z,99.99
2017-09-27T00:33:09.946Z,99.99
2017-09-27T00:33:50.531Z,99.99
2017-09-27T00:34:31.111Z,99.99
2017-09-27T00:35:11.681Z,99.99
2017-09-27T00:35:52.274Z,99.99
2017-09-27T00:36:32.856Z,99.99
2017-09-27T00:37:13.442Z,99.99
2017-09-27T00:37:54.025Z,99.99
2017-09-27T00:38:34.600Z,99.99
2017-09-27T00:39:15.184Z,99.99
2017-09-27T00:39:55.764Z,99.99
2017-09-27T00:40:36.343Z,99.99
2017-09-27T00:41:16.928Z,99.99
2017-09-27T00:41:57.516Z,99.99
2017-09-27T00:42:38.075Z,99.99
2017-09-27T00:43:18.661Z,99.99
2017-09-27T00:43:59.242Z,99.99
2017-09-27T00:44:39.818Z,99.99
2017-09-27T00:45:20.397Z,99.99
2017-09-27T00:46:00.974Z,99.99
2017-09-27T00:46:41.557Z,99.99
2017-09-27T00:47:22.134Z,99.99
2017-09-27T00:48:02.717Z,99.99
2017-09-27T00:48:43.299Z,99.99
2017-09-27T00:49:23.875Z,99.99
2017-09-27T00:50:04.457Z,99.99
2017-09-27T00:50:45.033Z,99.99
2017-09-27T00:51:25.622Z,99.99
2017-09-27T00:52:06.193Z,99.99
2017-09-27T00:52:46.768Z,99.99
2017-09-27T00:53:27.359Z,99.99
2017-09-27T00:54:07.940Z,99.99
2017-09-27T00:54:48.532Z,99.99
2017-09-27T00:55:29.107Z,99.99
2017-09-27T00:56:09.689Z,99.99
2017-09-27T00:56:50.253Z,99.99
2017-09-27T00:57:30.823Z,99.99
2017-09-27T00:58:11.407Z,99.99
2017-09-27T00:58:51.979Z,99.99
2017-09-27T00:59:32.551Z,99.99
2017-09-27T01:00:13.130Z,99.99
2017-09-27T01:00:53.720Z,99.99
2017-09-27T01:01:34.300Z,99.99
2017-09-27T01:02:14.880Z,99.99
2017-09-27T01:02:55.461Z,99.99
2017-09-27T01:03:36.056Z,99.99
2017-09-27T01:04:16.635Z,99.99
2017-09-27T01:04:57.212Z,99.99
2017-09-27T01:05:37.793Z,99.99
2017-09-27T01:06:18.370Z,99.99
2017-09-27T01:06:58.948Z,99.99
2017-09-27T01:07:39.517Z,99.99
2017-09-27T01:08:20.102Z,99.99
2017-09-27T01:09:00.682Z,99.99
2017-09-27T01:09:41.258Z,99.99
2017-09-27T01:10:21.839Z,99.99
2017-09-27T01:11:02.420Z,99.99
2017-09-27T01:11:42.995Z,99.99
2017-09-27T01:12:23.579Z,99.99
2017-09-27T01:13:04.154Z,99.99
2017-09-27T01:13:44.731Z,99.99
2017-09-27T01:14:25.316Z,99.99
2017-09-27T01:15:05.890Z,99.99
2017-09-27T01:15:46.472Z,99.99
2017-09-27T01:16:27.051Z,99.99
2017-09-27T01:17:07.633Z,99.99
2017-09-27T01:17:48.213Z,99.99
2017-09-27T01:18:28.782Z,99.99
2017-09-27T01:19:09.370Z,99.99
2017-09-27T01:19:49.951Z,99.99
2017-09-27T01:20:30.530Z,99.99
2017-09-27T01:21:11.110Z,99.99
2017-09-27T01:21:51.688Z,99.99
2017-09-27T01:22:32.274Z,99.99
2017-09-27T01:23:12.857Z,99.99
2017-09-27T01:23:53.434Z,99.99
2017-09-27T01:24:34.196Z,99.99
2017-09-27T01:25:14.796Z,99.99
2017-09-27T01:25:55.376Z,99.99
2017-09-27T01:26:35.960Z,99.99
2017-09-27T01:27:16.543Z,99.99
2017-09-27T01:27:57.193Z,99.99
2017-09-27T01:28:37.774Z,99.99
2017-09-27T01:29:18.361Z,99.99
2017-09-27T01:29:58.929Z,99.99
2017-09-27T01:30:39.515Z,99.99
2017-09-27T01:31:20.099Z,99.99
2017-09-27T01:32:00.685Z,99.99
2017-09-27T01:32:41.274Z,99.99
2017-09-27T01:33:21.845Z,99.99
2017-09-27T01:34:02.418Z,99.99
2017-09-27T01:34:42.998Z,99.99
2017-09-27T01:35:23.588Z,99.99
2017-09-27T01:36:04.162Z,99.99
2017-09-27T01:36:44.751Z,99.99
2017-09-27T01:37:25.338Z,99.99
2017-09-27T01:38:05.907Z,99.99
2017-09-27T01:38:46.481Z,99.99
2017-09-27T01:39:27.068Z,99.99
2017-09-27T01:40:07.651Z,99.99
2017-09-27T01:40:48.237Z,99.99
2017-09-27T01:41:28.820Z,99.99
2017-09-27T01:42:09.409Z,99.99
2017-09-27T01:42:49.975Z,99.99
2017-09-27T01:43:30.558Z,99.99
2017-09-27T01:44:11.137Z,99.99
2017-09-27T01:44:51.715Z,99.99
2017-09-27T01:45:32.303Z,99.99
2017-09-27T01:46:12.880Z,99.99
2017-09-27T01:46:53.495Z,99.99
2017-09-27T01:47:34.084Z,99.99
2017-09-27T01:48:14.664Z,99.99
2017-09-27T01:48:55.242Z,99.99
2017-09-27T01:49:35.821Z,99.99
2017-09-27T01:50:16.408Z,99.99
2017-09-27T01:50:56.977Z,99.99
2017-09-27T01:51:37.589Z,99.99
2017-09-27T01:52:18.151Z,99.99
2017-09-27T01:52:58.730Z,99.99
2017-09-27T01:53:39.313Z,99.99
2017-09-27T01:54:19.896Z,99.99
2017-09-27T01:55:00.468Z,99.99
2017-09-27T01:55:41.050Z,99.99
2017-09-27T01:56:21.624Z,99.99
2017-09-27T01:57:02.211Z,99.99
2017-09-27T01:57:42.793Z,99.99
2017-09-27T01:58:23.379Z,99.99
2017-09-27T01:59:03.958Z,99.99
2017-09-27T01:59:44.538Z,99.99
2017-09-27T02:00:25.107Z,99.99
2017-09-27T02:01:05.687Z,99.99
2017-09-27T02:01:46.304Z,99.99
2017-09-27T02:03:38.903Z,99.99
2017-09-27T02:04:19.475Z,99.99
2017-09-27T02:05:00.054Z,99.99
2017-09-27T02:05:40.652Z,99.99
2017-09-27T02:06:21.220Z,99.99
2017-09-27T02:07:01.799Z,99.99
2017-09-27T02:07:42.373Z,99.99
2017-09-27T02:08:22.958Z,99.99
2017-09-27T02:09:03.537Z,99.99
2017-09-27T02:09:44.124Z,99.99
2017-09-27T02:10:24.712Z,99.99
2017-09-27T02:11:05.281Z,99.99
2017-09-27T02:11:45.866Z,99.99
2017-09-27T02:12:26.444Z,99.99
2017-09-27T02:13:07.030Z,99.99
2017-09-27T02:13:47.610Z,99.99
2017-09-27T02:14:28.192Z,99.99
2017-09-27T02:15:08.774Z,99.99
2017-09-27T02:15:49.351Z,99.99
2017-09-27T02:16:29.924Z,99.99
2017-09-27T02:17:10.502Z,99.99
2017-09-27T02:17:51.081Z,99.99
2017-09-27T02:18:31.661Z,99.99
2017-09-27T02:19:12.240Z,99.99
2017-09-27T02:19:52.821Z,99.99
2017-09-27T02:20:33.405Z,99.99
2017-09-27T02:22:31.135Z,99.99
2017-09-27T02:24:43.976Z,99.99
2017-09-27T02:25:24.551Z,99.99
2017-09-27T02:26:05.128Z,99.99
2017-09-27T02:26:45.709Z,99.99
2017-09-27T02:27:26.288Z,99.99
2017-09-27T02:28:06.864Z,99.99
2017-09-27T02:28:47.436Z,99.99
2017-09-27T02:29:28.012Z,99.99
2017-09-27T02:30:08.595Z,99.99
2017-09-27T02:30:49.179Z,99.99
2017-09-27T02:31:29.749Z,99.99
2017-09-27T02:32:10.325Z,99.99
2017-09-27T02:32:50.905Z,99.99
2017-09-27T02:33:31.489Z,99.99
2017-09-27T02:34:12.066Z,99.99
2017-09-27T02:34:52.649Z,99.99
2017-09-27T02:35:33.231Z,99.99
2017-09-27T02:36:13.807Z,99.99
2017-09-27T02:36:54.383Z,99.99
2017-09-27T02:37:34.962Z,99.99
2017-09-27T02:38:15.536Z,99.99
2017-09-27T02:38:56.118Z,99.99
2017-09-27T02:39:36.708Z,99.99
2017-09-27T02:40:17.277Z,99.99
2017-09-27T02:40:57.857Z,99.99
2017-09-27T02:41:38.437Z,99.99
2017-09-27T02:42:19.008Z,99.99
2017-09-27T02:42:59.586Z,99.99
2017-09-27T02:43:40.161Z,99.99
2017-09-27T02:44:20.738Z,99.99
2017-09-27T02:45:01.322Z,99.99
2017-09-27T02:45:41.887Z,99.99
2017-09-27T02:46:22.465Z,99.99
2017-09-27T02:47:03.039Z,99.99
2017-09-27T02:47:43.624Z,99.99
2017-09-27T02:48:24.207Z,99.99
2017-09-27T02:49:04.790Z,99.99
2017-09-27T02:49:45.371Z,99.99
2017-09-27T02:50:25.951Z,99.99
2017-09-27T02:51:06.534Z,99.99
2017-09-27T02:51:47.123Z,99.99
2017-09-27T02:52:27.693Z,99.99
2017-09-27T02:53:08.271Z,99.99
2017-09-27T02:53:48.849Z,99.99
2017-09-27T02:54:29.436Z,99.99
2017-09-27T02:55:10.002Z,99.99
2017-09-27T02:55:50.579Z,99.99
2017-09-27T02:56:31.154Z,99.99
2017-09-27T02:57:11.737Z,99.99
2017-09-27T02:57:52.315Z,99.99
2017-09-27T02:58:32.873Z,99.99
2017-09-27T02:59:13.458Z,99.99
2017-09-27T02:59:54.038Z,99.99
2017-09-27T03:00:34.602Z,99.99
2017-09-27T03:01:15.178Z,99.99
2017-09-27T03:01:56.280Z,99.99
2017-09-27T03:02:36.867Z,99.99
2017-09-27T03:03:17.448Z,99.99
2017-09-27T03:03:58.024Z,99.99
2017-09-27T03:04:38.601Z,99.99
2017-09-27T03:05:19.175Z,99.99
2017-09-27T03:05:59.766Z,99.99
2017-09-27T03:06:40.337Z,99.99
2017-09-27T03:07:20.918Z,99.99
2017-09-27T03:08:01.498Z,99.99
2017-09-27T03:08:42.082Z,99.99
2017-09-27T03:09:22.668Z,99.99
2017-09-27T03:10:03.243Z,99.99
2017-09-27T03:10:43.823Z,99.99
2017-09-27T03:11:24.405Z,99.99
2017-09-27T03:12:04.995Z,99.99
2017-09-27T03:12:45.583Z,99.99
2017-09-27T03:13:26.165Z,99.99
2017-09-27T03:14:06.740Z,99.99
2017-09-27T03:14:47.927Z,99.99
2017-09-27T03:15:28.527Z,99.99
2017-09-27T03:16:09.244Z,99.99
2017-09-27T03:16:49.814Z,99.99
2017-09-27T03:17:30.397Z,99.99
2017-09-27T03:18:10.976Z,99.99
2017-09-27T03:18:51.554Z,99.99
2017-09-27T03:19:32.230Z,99.99
2017-09-27T03:20:12.833Z,99.99
2017-09-27T03:20:53.539Z,99.99
2017-09-27T03:21:34.255Z,99.99
2017-09-27T03:22:15.004Z,99.99
2017-09-27T03:22:55.599Z,99.99
2017-09-27T03:23:36.216Z,99.99
2017-09-27T03:24:16.944Z,99.99
2017-09-27T03:24:57.526Z,99.99
2017-09-27T03:25:38.228Z,99.99
2017-09-27T03:26:18.883Z,99.99
2017-09-27T03:26:59.555Z,99.99
2017-09-27T03:27:40.259Z,99.99
2017-09-27T03:28:20.948Z,99.99
2017-09-27T03:29:01.676Z,99.99
2017-09-27T03:29:42.411Z,99.99
2017-09-27T03:30:23.124Z,99.99
2017-09-27T03:31:03.829Z,99.99
2017-09-27T03:31:44.470Z,99.99
2017-09-27T03:32:25.069Z,99.99
2017-09-27T03:33:05.702Z,99.99
2017-09-27T03:33:46.409Z,99.99
2017-09-27T03:34:27.086Z,99.99
2017-09-27T03:35:07.697Z,99.99
2017-09-27T03:35:48.381Z,99.99
2017-09-27T03:36:28.966Z,99.99
2017-09-27T03:37:09.543Z,99.99
2017-09-27T03:37:50.125Z,99.99
2017-09-27T03:38:30.704Z,99.99
2017-09-27T03:39:11.295Z,99.99
2017-09-27T03:39:52.812Z,99.99
2017-09-27T03:40:33.368Z,99.99
2017-09-27T03:41:13.953Z,99.99
2017-09-27T03:41:54.511Z,99.99
2017-09-27T03:42:35.095Z,99.99
2017-09-27T03:43:15.675Z,99.99
2017-09-27T03:43:56.247Z,99.99
2017-09-27T03:44:36.828Z,99.99
2017-09-27T03:45:17.408Z,99.99
2017-09-27T03:45:57.998Z,99.99
2017-09-27T03:46:38.569Z,99.99
2017-09-27T03:47:19.155Z,99.99
2017-09-27T03:47:59.732Z,99.99
2017-09-27T03:48:40.402Z,99.99
2017-09-27T03:49:20.985Z,99.99
2017-09-27T03:50:01.645Z,99.99
2017-09-27T03:50:44.609Z,99.99
2017-09-27T03:51:25.031Z,99.99
2017-09-27T03:52:05.614Z,99.99
2017-09-27T03:52:46.200Z,99.99
2017-09-27T03:53:27.674Z,99.99
2017-09-27T03:54:08.295Z,99.99
2017-09-27T03:54:48.840Z,99.99
2017-09-27T03:55:29.426Z,99.99
2017-09-27T03:56:09.995Z,99.99
2017-09-27T03:56:50.567Z,99.99
2017-09-27T03:57:31.144Z,99.99
2017-09-27T03:58:11.728Z,99.99
2017-09-27T03:58:52.304Z,99.99
2017-09-27T03:59:32.883Z,99.99
2017-09-27T04:00:13.471Z,99.99
2017-09-27T04:00:54.052Z,99.99
2017-09-27T04:01:34.635Z,99.99
2017-09-27T04:02:15.217Z,99.99
2017-09-27T04:02:55.787Z,99.99
2017-09-27T04:03:36.363Z,99.99
2017-09-27T04:04:16.944Z,99.99
2017-09-27T04:04:57.527Z,99.99
2017-09-27T04:05:38.098Z,99.99
2017-09-27T04:06:18.676Z,99.99
2017-09-27T04:06:59.260Z,99.99
2017-09-27T04:07:39.842Z,99.99
2017-09-27T04:08:20.413Z,99.99
2017-09-27T04:09:01.004Z,99.99
2017-09-27T04:09:43.419Z,99.99
2017-09-27T04:10:23.973Z,99.99
2017-09-27T04:11:04.553Z,99.99
2017-09-27T04:11:45.133Z,99.99
2017-09-27T04:12:25.711Z,99.99
2017-09-27T04:13:06.295Z,99.99
2017-09-27T04:13:46.877Z,99.99
2017-09-27T04:14:27.473Z,99.99
2017-09-27T04:15:08.056Z,99.99
2017-09-27T04:15:48.631Z,99.99
2017-09-27T04:16:29.220Z,99.99
2017-09-27T04:17:09.804Z,99.99
2017-09-27T04:17:50.383Z,99.99
2017-09-27T04:18:30.979Z,99.99
2017-09-27T04:19:11.557Z,99.99
2017-09-27T04:19:52.137Z,99.99
2017-09-27T04:20:32.717Z,99.99
2017-09-27T04:21:13.314Z,99.99
2017-09-27T04:21:53.894Z,99.99
2017-09-27T04:22:34.480Z,99.99
2017-09-27T04:23:15.058Z,99.99
2017-09-27T04:23:55.641Z,99.99
2017-09-27T04:24:36.221Z,99.99
2017-09-27T04:25:16.812Z,99.99
2017-09-27T04:25:57.399Z,99.99
2017-09-27T04:26:38.006Z,99.99
2017-09-27T04:28:55.936Z,99.99
2017-09-27T04:29:36.505Z,99.99
2017-09-27T04:30:17.094Z,99.99
2017-09-27T04:30:57.670Z,99.99
2017-09-27T04:31:38.246Z,99.99
2017-09-27T04:32:18.828Z,99.99
2017-09-27T04:32:59.404Z,99.99
2017-09-27T04:33:39.971Z,99.99
2017-09-27T04:34:20.556Z,99.99
2017-09-27T04:35:01.133Z,99.99
2017-09-27T04:35:41.713Z,99.99
2017-09-27T04:36:22.297Z,99.99
2017-09-27T04:37:02.878Z,99.99
2017-09-27T04:37:43.454Z,99.99
2017-09-27T04:38:24.044Z,99.99
2017-09-27T04:39:04.616Z,99.99
2017-09-27T04:39:45.194Z,99.99
2017-09-27T04:40:25.769Z,99.99
2017-09-27T04:41:06.342Z,99.99
2017-09-27T04:41:46.916Z,99.99
2017-09-27T04:42:27.500Z,99.99
2017-09-27T04:43:08.076Z,99.99
2017-09-27T04:43:48.650Z,99.99
2017-09-27T04:44:29.236Z,99.99
2017-09-27T04:45:09.807Z,99.99
2017-09-27T04:45:50.375Z,99.99
2017-09-27T04:46:30.957Z,99.99
2017-09-27T04:47:11.552Z,99.99
2017-09-27T04:47:52.123Z,99.99
2017-09-27T04:48:32.715Z,99.99
2017-09-27T04:49:13.295Z,99.99
2017-09-27T04:49:53.876Z,99.99
2017-09-27T04:50:34.451Z,99.99
2017-09-27T04:51:15.037Z,99.99
2017-09-27T04:51:55.612Z,99.99
2017-09-27T04:52:36.194Z,99.99
2017-09-27T04:53:16.761Z,99.99
2017-09-27T04:53:57.347Z,99.99
2017-09-27T04:54:37.925Z,99.99
2017-09-27T04:55:18.520Z,99.99
2017-09-27T04:55:59.091Z,99.99
2017-09-27T04:56:39.665Z,99.99
2017-09-27T04:57:20.251Z,99.99
2017-09-27T04:58:00.828Z,99.99
2017-09-27T04:58:41.410Z,99.99
2017-09-27T04:59:21.995Z,99.99
2017-09-27T05:00:02.582Z,99.99
2017-09-27T05:00:43.160Z,99.99
2017-09-27T05:01:23.730Z,99.99
2017-09-27T05:02:04.305Z,99.99
2017-09-27T05:02:44.874Z,99.99
2017-09-27T05:03:25.451Z,99.99
2017-09-27T05:04:06.031Z,99.99
2017-09-27T05:04:46.609Z,99.99
2017-09-27T05:05:27.198Z,99.99
2017-09-27T05:06:07.776Z,99.99
2017-09-27T05:06:48.353Z,99.99
2017-09-27T05:07:28.919Z,99.99
2017-09-27T05:08:09.518Z,99.99
2017-09-27T05:08:50.084Z,99.99
2017-09-27T05:09:30.653Z,99.99
2017-09-27T05:10:11.233Z,99.99
2017-09-27T05:10:51.817Z,99.99
2017-09-27T05:11:32.398Z,99.99
2017-09-27T05:12:12.979Z,99.99
2017-09-27T05:12:53.552Z,99.99
2017-09-27T05:13:34.132Z,99.99
2017-09-27T05:14:14.711Z,99.99
2017-09-27T05:14:55.287Z,99.99
2017-09-27T05:15:35.873Z,99.99
2017-09-27T05:16:16.452Z,99.99
2017-09-27T05:16:57.037Z,99.99
2017-09-27T05:17:37.617Z,99.99
2017-09-27T05:18:18.200Z,99.99
2017-09-27T05:18:58.773Z,99.99
2017-09-27T05:19:39.356Z,99.99
2017-09-27T05:20:19.925Z,99.99
2017-09-27T05:21:00.504Z,99.99
2017-09-27T05:21:41.079Z,99.99
2017-09-27T05:22:21.654Z,99.99
2017-09-27T05:23:02.234Z,99.99
2017-09-27T05:23:42.823Z,99.99
2017-09-27T05:24:23.414Z,99.99
2017-09-27T05:25:03.980Z,99.99
2017-09-27T05:25:44.564Z,99.99
2017-09-27T05:26:25.144Z,99.99
2017-09-27T05:27:05.725Z,99.99
2017-09-27T05:27:46.311Z,99.99
2017-09-27T05:28:26.893Z,99.99
2017-09-27T05:29:07.484Z,99.99
2017-09-27T05:29:48.062Z,99.99
2017-09-27T05:30:28.641Z,99.99
2017-09-27T05:31:09.220Z,99.99
2017-09-27T05:31:49.801Z,99.99
2017-09-27T05:32:30.392Z,99.99
2017-09-27T05:33:10.975Z,99.99
2017-09-27T05:33:51.554Z,99.99
2017-09-27T05:34:36.713Z,99.99
2017-09-27T05:35:17.303Z,99.99
2017-09-27T05:35:57.902Z,99.99
2017-09-27T05:36:38.480Z,99.99
2017-09-27T05:37:19.053Z,99.99
2017-09-27T05:37:59.640Z,99.99
2017-09-27T05:38:40.210Z,99.99
2017-09-27T05:39:20.793Z,99.99
2017-09-27T05:40:01.370Z,99.99
2017-09-27T05:40:41.951Z,99.99
2017-09-27T05:41:22.523Z,99.99
2017-09-27T05:42:03.104Z,99.99
2017-09-27T05:42:43.690Z,99.99
2017-09-27T05:43:24.268Z,99.99
2017-09-27T05:44:04.850Z,99.99
2017-09-27T05:44:45.414Z,99.99
2017-09-27T05:45:26.015Z,99.99
2017-09-27T05:46:06.606Z,99.99
2017-09-27T05:46:47.175Z,99.99
2017-09-27T05:47:27.750Z,99.99
2017-09-27T05:48:08.325Z,99.99
2017-09-27T05:48:48.901Z,99.99
2017-09-27T05:49:29.486Z,99.99
2017-09-27T05:50:10.066Z,99.99
2017-09-27T05:50:50.647Z,99.99
2017-09-27T05:51:31.235Z,99.99
2017-09-27T05:52:11.822Z,99.99
2017-09-27T05:52:52.398Z,99.99
2017-09-27T05:53:32.976Z,99.99
2017-09-27T05:54:13.558Z,99.99
2017-09-27T05:54:54.140Z,99.99
2017-09-27T05:55:34.719Z,99.99
2017-09-27T05:56:15.298Z,99.99
2017-09-27T05:56:55.878Z,99.99
2017-09-27T05:57:36.462Z,99.99
2017-09-27T05:58:17.040Z,99.99
2017-09-27T05:58:57.618Z,99.99
2017-09-27T05:59:38.205Z,99.99
2017-09-27T06:00:18.783Z,99.99
2017-09-27T06:00:59.362Z,99.99
2017-09-27T06:01:39.941Z,99.99
2017-09-27T06:02:20.523Z,99.99
2017-09-27T06:03:01.108Z,99.99
2017-09-27T06:03:41.694Z,99.99
2017-09-27T06:04:22.266Z,99.99
2017-09-27T06:05:02.847Z,99.99
2017-09-27T06:05:43.425Z,99.99
2017-09-27T06:06:24.001Z,99.99
2017-09-27T06:07:04.588Z,99.99
2017-09-27T06:07:45.157Z,99.99
2017-09-27T06:08:25.744Z,99.99
2017-09-27T06:09:06.317Z,99.99
2017-09-27T06:09:46.897Z,99.99
2017-09-27T06:10:27.486Z,99.99
2017-09-27T06:11:08.063Z,99.99
2017-09-27T06:11:48.656Z,99.99
2017-09-27T06:12:29.246Z,99.99
2017-09-27T06:13:09.816Z,99.99
2017-09-27T06:13:50.406Z,99.99
2017-09-27T06:16:03.242Z,99.99
2017-09-27T06:16:43.807Z,99.99
2017-09-27T06:17:24.394Z,99.99
2017-09-27T06:18:04.972Z,99.99
2017-09-27T06:18:45.561Z,99.99
2017-09-27T06:19:26.140Z,99.99
2017-09-27T06:20:06.719Z,99.99
2017-09-27T06:20:47.280Z,99.99
2017-09-27T06:21:27.866Z,99.99
2017-09-27T06:22:08.442Z,99.99
2017-09-27T06:22:49.024Z,99.99
2017-09-27T06:23:29.597Z,99.99
2017-09-27T06:24:10.171Z,99.99
2017-09-27T06:24:50.748Z,99.99
2017-09-27T06:25:31.323Z,99.99
2017-09-27T06:26:11.895Z,99.99
2017-09-27T06:26:52.474Z,99.99
2017-09-27T06:27:33.036Z,99.99
2017-09-27T06:28:13.614Z,99.99
2017-09-27T06:28:54.193Z,99.99
2017-09-27T06:29:34.774Z,99.99
2017-09-27T06:30:15.343Z,99.99
2017-09-27T06:30:56.494Z,99.99
2017-09-27T06:31:37.063Z,99.99
2017-09-27T06:32:17.626Z,99.99
2017-09-27T06:32:58.195Z,99.99
2017-09-27T06:33:38.768Z,99.99
2017-09-27T06:34:19.343Z,99.99
2017-09-27T06:34:59.902Z,99.99
2017-09-27T06:35:40.450Z,99.99
2017-09-27T06:36:21.043Z,99.99
2017-09-27T06:38:08.543Z,99.99
2017-09-27T06:38:49.122Z,99.99
2017-09-27T06:39:29.721Z,99.99
2017-09-27T06:40:10.283Z,99.99
2017-09-27T06:40:50.856Z,99.99
2017-09-27T06:41:31.424Z,99.99
2017-09-27T06:42:11.992Z,99.99
2017-09-27T06:42:52.562Z,99.99
2017-09-27T06:43:33.126Z,99.99
2017-09-27T06:44:13.707Z,99.99
2017-09-27T06:44:54.282Z,99.99
2017-09-27T06:45:34.861Z,99.99
2017-09-27T06:46:15.447Z,99.99
2017-09-27T06:46:56.041Z,99.99
2017-09-27T06:47:36.603Z,99.99
2017-09-27T06:48:17.162Z,99.99
2017-09-27T06:48:57.728Z,99.99
2017-09-27T06:49:38.308Z,99.99
2017-09-27T06:50:18.888Z,99.99
2017-09-27T06:50:59.478Z,99.99
2017-09-27T06:51:40.038Z,99.99
2017-09-27T06:52:20.606Z,99.99
2017-09-27T06:53:01.176Z,99.99
2017-09-27T06:53:41.746Z,99.99
2017-09-27T06:54:22.320Z,99.99
2017-09-27T06:55:02.893Z,99.99
2017-09-27T06:55:43.457Z,99.99
2017-09-27T06:56:24.041Z,99.99
2017-09-27T06:57:04.617Z,99.99
2017-09-27T06:57:45.200Z,99.99
2017-09-27T06:58:25.773Z,99.99
2017-09-27T06:59:06.355Z,99.99
2017-09-27T06:59:46.937Z,99.99
2017-09-27T07:00:27.506Z,99.99
2017-09-27T07:01:08.068Z,99.99
2017-09-27T07:01:48.656Z,99.99
2017-09-27T07:02:29.227Z,99.99
2017-09-27T07:03:09.810Z,99.99
2017-09-27T07:03:50.371Z,99.99
2017-09-27T07:04:30.959Z,99.05
2017-09-27T07:05:11.525Z,98.76
2017-09-27T07:05:52.109Z,98.76
2017-09-27T07:06:32.688Z,99.15
2017-09-27T07:07:13.270Z,98.96
2017-09-27T07:07:53.850Z,98.57
2017-09-27T07:08:34.423Z,97.47
2017-09-27T07:09:14.991Z,97.28
2017-09-27T07:09:55.574Z,96.89
2017-09-27T07:10:36.150Z,95.94
2017-09-27T07:11:16.735Z,96.18
2017-09-27T07:11:57.314Z,96.89
2017-09-27T07:12:37.877Z,95.98
2017-09-27T07:13:18.459Z,95.89
2017-09-27T07:13:59.044Z,94.64
2017-09-27T07:14:39.629Z,94.84
2017-09-27T07:15:20.212Z,94.84
2017-09-27T07:16:00.785Z,94.74
2017-09-27T07:16:41.360Z,94.26
2017-09-27T07:17:21.932Z,94.45
2017-09-27T07:18:02.494Z,93.54
2017-09-27T07:18:43.074Z,92.77
2017-09-27T07:19:23.654Z,93.73
2017-09-27T07:20:04.221Z,92.86
2017-09-27T07:20:44.800Z,93.63
2017-09-27T07:21:25.362Z,92.39
2017-09-27T07:22:05.921Z,92.68
2017-09-27T07:22:46.501Z,92.96
2017-09-27T07:23:27.084Z,93.63
2017-09-27T07:25:45.051Z,91.81
2017-09-27T07:26:25.631Z,92.05
2017-09-27T07:28:23.318Z,91.14
2017-09-27T07:29:03.885Z,91.24
2017-09-27T07:29:44.472Z,92
2017-09-27T07:30:25.050Z,92.72
2017-09-27T07:31:05.623Z,93.1
2017-09-27T07:31:46.203Z,92.82
2017-09-27T07:32:26.791Z,92.63
2017-09-27T07:33:07.343Z,91.9
2017-09-27T07:33:47.923Z,90.9
2017-09-27T07:34:28.475Z,90.08
2017-09-27T07:35:09.067Z,90.03
2017-09-27T07:35:49.652Z,90.13
2017-09-27T07:36:30.223Z,90.52
2017-09-27T07:37:10.802Z,90.03
2017-09-27T07:39:23.656Z,90.56
2017-09-27T07:40:04.230Z,88.25
2017-09-27T07:40:44.808Z,88.06
2017-09-27T07:41:25.375Z,87.77
2017-09-27T07:42:05.965Z,87.53
2017-09-27T07:42:46.519Z,87.19
2017-09-27T07:43:27.085Z,87.01
2017-09-27T07:44:07.666Z,87.34
2017-09-27T07:44:48.183Z,86.66
2017-09-27T07:45:28.760Z,86.66
2017-09-27T07:46:09.317Z,86.38
2017-09-27T07:46:49.864Z,86.28
2017-09-27T07:47:30.431Z,86.28
2017-09-27T07:48:10.977Z,86.18
2017-09-27T07:48:51.531Z,86.57
2017-09-27T07:49:32.083Z,85.51
2017-09-27T07:50:12.669Z,86.18
2017-09-27T07:52:00.186Z,86.66
2017-09-27T07:52:40.743Z,86.66
2017-09-27T07:53:21.300Z,86.38
2017-09-27T07:54:01.844Z,86.28
2017-09-27T07:54:42.433Z,86.47
2017-09-27T07:55:22.978Z,86.09
2017-09-27T07:56:03.524Z,86.18
2017-09-27T07:56:44.115Z,85.99
2017-09-27T07:57:24.648Z,85.99
2017-09-27T07:58:05.188Z,86.47
2017-09-27T07:58:45.754Z,87.62
2017-09-27T07:59:26.329Z,86.76
2017-09-27T08:01:25.028Z,87.68
2017-09-27T08:02:05.612Z,88.06
2017-09-27T08:02:46.176Z,88.98
2017-09-27T08:03:26.752Z,88.98
2017-09-27T08:04:07.317Z,88.59
2017-09-27T08:04:47.901Z,89.26
2017-09-27T08:05:28.427Z,90.03
2017-09-27T08:06:09.011Z,90.42
2017-09-27T08:06:49.562Z,90.9
2017-09-27T08:07:30.144Z,90.9
2017-09-27T08:08:10.661Z,90.61
2017-09-27T08:08:51.218Z,90.61
2017-09-27T08:09:31.785Z,90.42
2017-09-27T08:10:12.322Z,91.47
2017-09-27T08:10:52.888Z,91.96
2017-09-27T08:11:33.473Z,91.38
2017-09-27T08:12:14.022Z,91.09
2017-09-27T08:12:54.633Z,90.75
2017-09-27T08:13:35.179Z,90.37
2017-09-27T08:14:15.763Z,89.31
2017-09-27T08:14:56.277Z,88.16
2017-09-27T08:15:36.830Z,88.73
2017-09-27T08:16:17.410Z,88.31
2017-09-27T08:16:57.984Z,87.58
2017-09-27T08:17:38.537Z,87.96
2017-09-27T08:19:31.192Z,88.25
2017-09-27T08:20:11.768Z,89.22
2017-09-27T08:20:52.328Z,89.5
2017-09-27T08:21:32.906Z,89.69
2017-09-27T08:22:13.513Z,89.12
2017-09-27T08:22:54.064Z,88.59
2017-09-27T08:23:34.636Z,88.39
2017-09-27T08:24:15.210Z,88.73
2017-09-27T08:24:55.792Z,88.45
2017-09-27T08:25:36.357Z,88.25
2017-09-27T08:26:16.921Z,88.83
2017-09-27T08:26:57.490Z,88.35
2017-09-27T08:27:38.068Z,88.39
2017-09-27T08:28:18.640Z,89.07
2017-09-27T08:28:59.218Z,88.87
2017-09-27T08:33:53.111Z,86.32
2017-09-27T08:34:33.681Z,86.52
2017-09-27T08:35:14.267Z,86.32
2017-09-27T08:35:54.854Z,85.55
2017-09-27T08:36:35.398Z,85.94
2017-09-27T08:37:15.967Z,85.75
2017-09-27T08:37:56.556Z,85.46
2017-09-27T08:38:37.128Z,85.31
2017-09-27T08:39:17.706Z,85.6
2017-09-27T08:39:58.287Z,84.44
2017-09-27T08:40:38.844Z,84.63
2017-09-27T08:41:19.409Z,84.34
2017-09-27T08:41:59.974Z,84.44
2017-09-27T08:42:40.563Z,84.54
2017-09-27T08:43:21.135Z,84.16
2017-09-27T08:44:01.695Z,84.73
2017-09-27T08:44:42.269Z,84.73
2017-09-27T08:45:22.812Z,84.34
2017-09-27T08:46:03.364Z,84.16
2017-09-27T08:46:43.907Z,82.85
2017-09-27T08:47:24.460Z,82.56
2017-09-27T08:48:05.024Z,82.17
2017-09-27T08:48:45.575Z,82.65
2017-09-27T08:49:26.156Z,82.56
2017-09-27T08:50:06.720Z,81.45
2017-09-27T08:50:47.272Z,80.29
2017-09-27T08:51:27.855Z,79.71
2017-09-27T08:52:08.381Z,80.1
2017-09-27T08:52:48.926Z,80.29
2017-09-27T08:53:29.485Z,80.33
2017-09-27T08:54:10.057Z,79.56
2017-09-27T08:54:50.627Z,79.66
2017-09-27T08:55:31.187Z,78.88
2017-09-27T08:56:11.723Z,77.63
2017-09-27T08:56:52.283Z,77.28
2017-09-27T08:57:32.843Z,77
2017-09-27T08:58:13.387Z,76.03
2017-09-27T08:58:53.975Z,75.49
2017-09-27T08:59:34.516Z,75.4
2017-09-27T09:00:15.083Z,74.18
2017-09-27T09:00:55.628Z,74.08
2017-09-27T09:01:36.219Z,73.83
2017-09-27T09:02:16.741Z,72.58
2017-09-27T09:02:57.296Z,72.44
2017-09-27T09:03:37.863Z,72.63
2017-09-27T09:04:18.442Z,72.83
2017-09-27T09:04:58.981Z,71.86
2017-09-27T09:05:39.518Z,71.58